Airport View

Enter AWOS ICAO identifier for current METAR.

ex. KFNL

26 Feb 2020 23:08

Frequency: 118.275

Phone: 828-287-6498

Other Area AWOS: KEHO - KMRN - KAVL - KSPA

TAF AMD KAVL 262101Z 2621/2718 34010G17KT P6SM VCSH SCT025 OVC040 FM262300 34014G21KT 6SM -SHRA OVC025 FM270100 34017G27KT P6SM BKN035